createdAt,value
2023-02-06T00:01:50.780Z,3.00
2023-02-06T00:04:18.872Z,3.00
2023-02-06T00:06:47.151Z,3.00
2023-02-06T00:09:15.817Z,3.00
2023-02-06T00:11:44.177Z,3.00
2023-02-06T00:14:12.110Z,2.90
2023-02-06T00:16:40.036Z,2.90
2023-02-06T00:19:08.451Z,2.80
2023-02-06T00:21:36.478Z,2.90
2023-02-06T00:24:05.249Z,3.10
2023-02-06T00:26:33.317Z,3.00
2023-02-06T00:29:01.405Z,3.00
2023-02-06T00:31:29.896Z,3.00
2023-02-06T00:33:58.057Z,2.90
2023-02-06T00:36:26.831Z,2.90
2023-02-06T00:38:55.211Z,2.90
2023-02-06T00:41:23.596Z,2.80
2023-02-06T00:43:53.021Z,2.80
2023-02-06T00:46:21.647Z,2.70
2023-02-06T00:48:50.332Z,2.80
2023-02-06T00:51:18.745Z,2.80
2023-02-06T00:53:48.591Z,2.70
2023-02-06T00:56:18.788Z,2.40
2023-02-06T00:58:48.045Z,2.10
2023-02-06T01:01:16.145Z,2.20
2023-02-06T01:03:44.318Z,2.10
2023-02-06T01:06:12.336Z,1.90
2023-02-06T01:08:40.868Z,1.80
2023-02-06T01:11:19.621Z,1.80
2023-02-06T01:13:48.882Z,1.70
2023-02-06T01:16:21.333Z,1.70
2023-02-06T01:18:50.040Z,1.90
2023-02-06T01:21:21.333Z,2.10
2023-02-06T01:23:51.529Z,2.10
2023-02-06T01:26:22.957Z,2.30
2023-02-06T01:28:51.694Z,2.30
2023-02-06T01:31:23.160Z,2.50
2023-02-06T01:33:51.981Z,2.70
2023-02-06T01:36:21.384Z,2.90
2023-02-06T01:38:50.130Z,3.00
2023-02-06T01:41:21.269Z,3.20
2023-02-06T01:44:18.619Z,3.20
2023-02-06T01:46:49.662Z,3.00
2023-02-06T01:49:26.164Z,3.20
2023-02-06T01:52:17.717Z,3.20
2023-02-06T01:54:51.206Z,3.20
2023-02-06T01:57:19.823Z,3.40
2023-02-06T01:59:52.060Z,3.30
2023-02-06T02:02:21.458Z,3.30
2023-02-06T02:04:49.798Z,3.30
2023-02-06T02:07:23.431Z,3.30
2023-02-06T02:09:52.220Z,3.30
2023-02-06T02:12:20.829Z,3.40
2023-02-06T02:14:52.905Z,3.30
2023-02-06T02:17:27.100Z,3.20
2023-02-06T02:20:19.503Z,3.20
2023-02-06T02:23:06.456Z,3.20
2023-02-06T02:25:43.329Z,3.10
2023-02-06T02:28:33.708Z,3.30
2023-02-06T02:31:09.918Z,3.30
2023-02-06T02:34:14.097Z,3.20
2023-02-06T02:36:50.341Z,3.20
2023-02-06T02:39:21.223Z,3.20
2023-02-06T02:42:11.818Z,3.30
2023-02-06T02:45:10.882Z,3.40
2023-02-06T02:47:50.773Z,3.30
2023-02-06T02:50:19.742Z,3.30
2023-02-06T02:52:47.793Z,3.20
2023-02-06T02:55:22.722Z,3.10
2023-02-06T02:58:08.501Z,3.20
2023-02-06T03:00:58.454Z,3.30
2023-02-06T03:03:29.026Z,3.10
2023-02-06T03:06:11.956Z,3.10
2023-02-06T03:08:53.258Z,3.00
2023-02-06T03:11:24.755Z,2.90
2023-02-06T03:14:06.172Z,2.90
2023-02-06T03:16:42.637Z,2.90
2023-02-06T03:19:26.845Z,2.80
2023-02-06T03:21:55.540Z,2.70
2023-02-06T03:24:29.202Z,2.30
2023-02-06T03:27:01.766Z,2.10
2023-02-06T03:29:33.994Z,2.20
2023-02-06T03:32:20.591Z,2.40
2023-02-06T03:35:01.049Z,2.30
2023-02-06T03:37:30.059Z,2.20
2023-02-06T03:40:00.615Z,2.10
2023-02-06T03:42:30.926Z,2.00
2023-02-06T03:45:04.947Z,1.90
2023-02-06T03:47:35.933Z,2.10
2023-02-06T03:50:04.593Z,2.10
2023-02-06T03:52:38.560Z,1.90
2023-02-06T03:55:24.323Z,1.60
2023-02-06T03:57:56.465Z,1.50
2023-02-06T04:00:25.955Z,1.50
2023-02-06T04:02:56.451Z,1.50
2023-02-06T04:05:25.352Z,1.60
2023-02-06T04:07:54.083Z,1.50
2023-02-06T04:10:24.425Z,1.90
2023-02-06T04:12:54.094Z,1.60
2023-02-06T04:15:22.989Z,1.80
2023-02-06T04:18:00.455Z,1.80
2023-02-06T04:20:30.108Z,1.60
2023-02-06T04:22:59.071Z,1.50
2023-02-06T04:25:27.548Z,1.30
2023-02-06T04:27:56.069Z,1.00
2023-02-06T04:30:24.809Z,1.00
2023-02-06T04:32:52.852Z,0.90
2023-02-06T04:35:20.803Z,1.10
2023-02-06T04:37:49.343Z,1.10
2023-02-06T04:40:17.764Z,1.00
2023-02-06T04:42:46.834Z,0.90
2023-02-06T04:45:15.155Z,0.90
2023-02-06T04:47:43.224Z,0.80
2023-02-06T04:50:11.811Z,1.00
2023-02-06T04:52:40.090Z,1.40
2023-02-06T04:55:09.225Z,1.50
2023-02-06T04:57:38.327Z,1.30
2023-02-06T05:00:07.378Z,1.20
2023-02-06T05:02:55.666Z,1.10
2023-02-06T05:05:24.278Z,1.10
2023-02-06T05:07:52.487Z,1.00
2023-02-06T05:10:20.553Z,1.00
2023-02-06T05:12:50.985Z,1.00
2023-02-06T05:15:19.558Z,0.90
2023-02-06T05:17:47.512Z,0.80
2023-02-06T05:20:15.668Z,1.00
2023-02-06T05:22:43.713Z,1.10
2023-02-06T05:25:11.837Z,1.00
2023-02-06T05:27:40.614Z,1.10
2023-02-06T05:30:09.309Z,1.10
2023-02-06T05:32:37.343Z,0.80
2023-02-06T05:35:06.694Z,1.20
2023-02-06T05:37:35.315Z,1.40
2023-02-06T05:40:05.468Z,1.40
2023-02-06T05:42:34.296Z,1.30
2023-02-06T05:45:02.650Z,1.10
2023-02-06T05:47:32.314Z,1.00
2023-02-06T05:50:00.778Z,0.80
2023-02-06T05:52:29.072Z,0.70
2023-02-06T05:54:57.149Z,0.80
2023-02-06T05:57:25.365Z,0.90
2023-02-06T05:59:53.514Z,0.90
2023-02-06T06:02:22.016Z,0.90
2023-02-06T06:04:50.240Z,1.30
2023-02-06T06:07:43.359Z,1.40
2023-02-06T06:10:11.447Z,1.50
2023-02-06T06:12:41.421Z,1.50
2023-02-06T06:15:09.784Z,1.50
2023-02-06T06:17:38.048Z,1.40
2023-02-06T06:20:06.307Z,1.00
2023-02-06T06:22:34.199Z,0.90
2023-02-06T06:25:02.538Z,0.80
2023-02-06T06:27:31.612Z,0.90
2023-02-06T06:29:59.588Z,1.10
2023-02-06T06:32:27.633Z,1.00
2023-02-06T06:34:56.005Z,0.80
2023-02-06T06:37:24.727Z,0.90
2023-02-06T06:39:52.646Z,1.00
2023-02-06T06:42:20.827Z,1.40
2023-02-06T06:44:49.267Z,1.30
2023-02-06T06:47:17.282Z,1.50
2023-02-06T06:49:45.763Z,1.80
2023-02-06T06:52:24.416Z,2.10
2023-02-06T06:55:09.440Z,2.50
2023-02-06T06:57:37.930Z,3.10
2023-02-06T07:00:07.232Z,3.20
2023-02-06T07:02:35.747Z,2.30
2023-02-06T07:05:05.159Z,2.60
2023-02-06T07:07:34.216Z,2.50
2023-02-06T07:10:02.443Z,2.20
2023-02-06T07:12:31.577Z,3.00
2023-02-06T07:14:59.720Z,3.70
2023-02-06T07:17:27.786Z,4.40
2023-02-06T07:19:55.924Z,4.60
2023-02-06T07:22:25.716Z,4.50
2023-02-06T07:24:54.561Z,3.90
2023-02-06T07:27:22.586Z,3.40
2023-02-06T07:29:50.673Z,3.20
2023-02-06T07:32:18.673Z,3.80
2023-02-06T07:34:46.731Z,4.70
2023-02-06T07:37:15.586Z,5.00
2023-02-06T07:39:43.699Z,5.60
2023-02-06T07:42:12.947Z,6.00
2023-02-06T07:44:55.787Z,5.30
2023-02-06T07:47:24.189Z,4.80
2023-02-06T07:49:52.543Z,4.20
2023-02-06T07:52:22.749Z,4.30
2023-02-06T07:54:51.243Z,5.00
2023-02-06T07:57:22.618Z,5.90
2023-02-06T07:59:50.740Z,6.70
2023-02-06T08:02:18.906Z,7.60
2023-02-06T08:04:48.036Z,7.50
2023-02-06T08:07:18.476Z,7.70
2023-02-06T08:09:46.638Z,8.00
2023-02-06T08:12:14.714Z,8.30
2023-02-06T08:14:45.884Z,8.60
2023-02-06T08:17:14.390Z,8.90
2023-02-06T08:19:42.835Z,8.30
2023-02-06T08:22:10.739Z,8.70
2023-02-06T08:24:38.710Z,8.20
2023-02-06T08:27:07.374Z,7.60
2023-02-06T08:29:42.800Z,7.80
2023-02-06T08:32:11.199Z,7.50
2023-02-06T08:34:40.690Z,6.90
2023-02-06T08:37:08.791Z,6.70
2023-02-06T08:39:38.223Z,7.40
2023-02-06T08:42:06.320Z,7.40
2023-02-06T08:44:34.667Z,6.70
2023-02-06T08:47:09.949Z,5.80
2023-02-06T08:49:38.691Z,6.20
2023-02-06T08:52:07.835Z,6.50
2023-02-06T08:54:38.638Z,6.40
2023-02-06T08:57:07.307Z,6.30
2023-02-06T08:59:41.695Z,5.80
2023-02-06T09:02:11.816Z,5.70
2023-02-06T09:04:42.723Z,5.70
2023-02-06T09:07:10.783Z,6.00
2023-02-06T09:09:38.747Z,6.10
2023-02-06T09:12:07.473Z,6.10
2023-02-06T09:14:36.361Z,6.30
2023-02-06T09:17:04.693Z,6.40
2023-02-06T09:19:33.532Z,6.70
2023-02-06T09:22:01.973Z,6.80
2023-02-06T09:24:32.298Z,6.80
2023-02-06T09:27:01.140Z,6.50
2023-02-06T09:29:31.855Z,6.70
2023-02-06T09:32:01.104Z,6.80
2023-02-06T09:34:29.977Z,7.00
2023-02-06T09:36:58.332Z,7.40
2023-02-06T09:39:27.162Z,7.70
2023-02-06T09:42:37.533Z,7.60
2023-02-06T09:45:18.729Z,7.20
2023-02-06T09:47:51.719Z,6.90
2023-02-06T09:50:42.701Z,6.80
2023-02-06T09:53:49.294Z,6.80
2023-02-06T09:56:56.604Z,6.50
2023-02-06T09:59:29.018Z,6.50
2023-02-06T10:02:14.937Z,6.40
2023-02-06T10:05:26.356Z,6.40
2023-02-06T10:08:13.045Z,6.50
2023-02-06T10:10:53.381Z,6.40
2023-02-06T10:13:36.950Z,6.40
2023-02-06T10:16:07.332Z,6.00
2023-02-06T10:18:45.858Z,5.60
2023-02-06T10:21:43.652Z,5.80
2023-02-06T10:24:40.278Z,5.90
2023-02-06T10:27:14.848Z,6.10
2023-02-06T10:29:45.946Z,6.10
2023-02-06T10:32:24.657Z,5.90
2023-02-06T10:35:11.362Z,6.10
2023-02-06T10:38:05.051Z,6.20
2023-02-06T10:40:41.408Z,6.10
2023-02-06T10:43:20.207Z,6.20
2023-02-06T10:46:23.338Z,6.30
2023-02-06T10:49:30.498Z,6.40
2023-02-06T10:52:01.898Z,6.50
2023-02-06T10:54:38.915Z,6.40
2023-02-06T10:57:17.623Z,6.60
2023-02-06T10:59:48.730Z,6.70
2023-02-06T11:02:24.875Z,6.50
2023-02-06T11:05:22.430Z,6.60
2023-02-06T11:07:54.277Z,6.60
2023-02-06T11:10:25.385Z,6.70
2023-02-06T11:13:21.298Z,6.60
2023-02-06T11:16:00.757Z,6.80
2023-02-06T11:18:33.681Z,6.90
2023-02-06T11:21:03.546Z,6.80
2023-02-06T11:23:34.771Z,7.00
2023-02-06T11:26:14.317Z,7.00
2023-02-06T11:28:58.537Z,6.70
2023-02-06T11:31:45.091Z,6.50
2023-02-06T11:34:32.659Z,6.90
2023-02-06T11:37:04.321Z,6.80
2023-02-06T11:39:38.476Z,6.60
2023-02-06T11:42:22.664Z,6.70
2023-02-06T11:44:53.189Z,6.70
2023-02-06T11:47:34.169Z,6.60
2023-02-06T11:50:14.661Z,6.70
2023-02-06T11:52:46.978Z,6.70
2023-02-06T11:55:40.079Z,6.80
2023-02-06T11:58:21.564Z,6.50
2023-02-06T12:00:53.083Z,6.70
2023-02-06T12:03:43.918Z,6.60
2023-02-06T12:06:15.745Z,6.80
2023-02-06T12:08:50.476Z,6.70
2023-02-06T12:11:28.509Z,6.80
2023-02-06T12:14:03.324Z,6.40
2023-02-06T12:16:35.441Z,6.30
2023-02-06T12:19:11.691Z,6.50
2023-02-06T12:21:48.703Z,6.90
2023-02-06T12:24:40.733Z,7.00
2023-02-06T12:27:27.153Z,7.00
2023-02-06T12:30:06.583Z,6.90
2023-02-06T12:32:43.621Z,6.70
2023-02-06T12:35:30.812Z,6.70
2023-02-06T12:38:11.364Z,6.50
2023-02-06T12:40:57.854Z,6.60
2023-02-06T12:43:27.709Z,6.70
2023-02-06T12:46:04.517Z,6.60
2023-02-06T12:48:58.115Z,6.50
2023-02-06T12:51:41.585Z,6.60
2023-02-06T12:54:15.974Z,6.70
2023-02-06T12:56:52.070Z,6.70
2023-02-06T12:59:56.756Z,6.70
2023-02-06T13:02:31.834Z,6.60
2023-02-06T13:05:05.884Z,6.50
2023-02-06T13:07:49.009Z,6.40
2023-02-06T13:10:22.010Z,6.20
2023-02-06T13:12:58.733Z,6.20
2023-02-06T13:15:32.698Z,6.10
2023-02-06T13:18:01.622Z,6.10
2023-02-06T13:20:31.837Z,6.00
2023-02-06T13:23:13.170Z,6.00
2023-02-06T13:25:41.418Z,6.00
2023-02-06T13:28:27.859Z,5.80
2023-02-06T13:31:07.310Z,5.80
2023-02-06T13:33:48.746Z,5.70
2023-02-06T13:36:25.213Z,5.90
2023-02-06T13:39:12.703Z,6.00
2023-02-06T13:41:42.641Z,6.20
2023-02-06T13:44:25.477Z,6.10
2023-02-06T13:47:23.058Z,6.10
2023-02-06T13:50:18.768Z,6.00
2023-02-06T13:53:07.139Z,5.90
2023-02-06T13:55:44.725Z,6.30
2023-02-06T13:58:30.762Z,6.40
2023-02-06T14:01:02.180Z,6.20
2023-02-06T14:03:34.747Z,6.10
2023-02-06T14:06:12.077Z,6.20
2023-02-06T14:09:02.371Z,6.10
2023-02-06T14:12:04.048Z,6.00
2023-02-06T14:14:41.128Z,5.80
2023-02-06T14:17:37.800Z,5.70
2023-02-06T14:20:24.754Z,5.80
2023-02-06T14:23:22.053Z,5.80
2023-02-06T14:26:11.771Z,5.70
2023-02-06T14:28:55.067Z,5.60
2023-02-06T14:31:26.911Z,5.40
2023-02-06T14:34:05.574Z,5.50
2023-02-06T14:37:20.836Z,5.60
2023-02-06T14:40:04.382Z,5.50
2023-02-06T14:42:38.717Z,5.30
2023-02-06T14:45:33.759Z,5.30
2023-02-06T14:48:23.312Z,5.20
2023-02-06T14:50:57.626Z,5.00
2023-02-06T14:53:31.708Z,5.00
2023-02-06T14:56:27.946Z,5.00
2023-02-06T14:58:56.860Z,5.10
2023-02-06T15:01:28.512Z,5.00
2023-02-06T15:04:11.749Z,4.90
2023-02-06T15:06:46.649Z,4.90
2023-02-06T15:09:36.223Z,4.80
2023-02-06T15:12:18.816Z,4.80
2023-02-06T15:15:03.120Z,4.90
2023-02-06T15:17:34.580Z,4.80
2023-02-06T15:20:21.274Z,4.80
2023-02-06T15:22:49.500Z,4.70
2023-02-06T15:25:41.042Z,4.70
2023-02-06T15:28:18.819Z,4.60
2023-02-06T15:30:52.772Z,4.50
2023-02-06T15:33:28.356Z,4.40
2023-02-06T15:35:58.339Z,4.30
2023-02-06T15:38:29.349Z,4.30
2023-02-06T15:41:05.691Z,4.20
2023-02-06T15:43:35.929Z,4.00
2023-02-06T15:46:05.933Z,4.00
2023-02-06T15:48:43.641Z,4.00
2023-02-06T15:51:25.146Z,4.00
2023-02-06T15:54:08.908Z,3.90
2023-02-06T15:56:41.448Z,4.00
2023-02-06T15:59:24.308Z,3.90
2023-02-06T16:01:54.598Z,3.90
2023-02-06T16:04:31.990Z,3.80
2023-02-06T16:07:23.013Z,3.80
2023-02-06T16:10:04.084Z,3.80
2023-02-06T16:12:38.793Z,3.80
2023-02-06T16:15:22.522Z,3.80
2023-02-06T16:17:51.517Z,3.90
2023-02-06T16:20:33.772Z,3.90
2023-02-06T16:23:21.824Z,3.90
2023-02-06T16:26:13.876Z,3.80
2023-02-06T16:29:08.547Z,3.80
2023-02-06T16:31:43.064Z,3.70
2023-02-06T16:34:23.126Z,3.80
2023-02-06T16:36:53.805Z,3.60
2023-02-06T16:39:23.591Z,3.60
2023-02-06T16:41:53.373Z,3.50
2023-02-06T16:44:22.218Z,3.50
2023-02-06T16:46:50.795Z,3.50
2023-02-06T16:49:21.228Z,3.50
2023-02-06T16:51:52.830Z,3.50
2023-02-06T16:54:27.437Z,3.50
2023-02-06T16:56:59.651Z,3.50
2023-02-06T16:59:27.788Z,3.50
2023-02-06T17:01:57.871Z,3.60
2023-02-06T17:04:26.095Z,3.50
2023-02-06T17:06:54.135Z,3.30
2023-02-06T17:09:22.907Z,3.30
2023-02-06T17:11:53.363Z,3.30
2023-02-06T17:14:21.839Z,3.30
2023-02-06T17:16:50.509Z,3.30
2023-02-06T17:19:18.421Z,3.50
2023-02-06T17:21:46.827Z,3.50
2023-02-06T17:24:15.451Z,3.50
2023-02-06T17:26:43.857Z,3.40
2023-02-06T17:29:14.218Z,3.30
2023-02-06T17:31:42.323Z,3.40
2023-02-06T17:34:10.601Z,3.40
2023-02-06T17:36:41.172Z,3.40
2023-02-06T17:39:12.194Z,3.50
2023-02-06T17:41:40.340Z,3.60
2023-02-06T17:44:08.883Z,3.60
2023-02-06T17:46:37.664Z,3.60
2023-02-06T17:49:07.011Z,3.70
2023-02-06T17:51:35.065Z,3.60
2023-02-06T17:54:06.293Z,3.30
2023-02-06T17:56:35.391Z,3.60
2023-02-06T17:59:04.221Z,3.60
2023-02-06T18:01:32.535Z,3.50
2023-02-06T18:04:01.389Z,3.50
2023-02-06T18:06:33.633Z,3.50
2023-02-06T18:09:04.810Z,3.40
2023-02-06T18:11:35.838Z,3.30
2023-02-06T18:14:04.491Z,3.10
2023-02-06T18:16:33.063Z,3.00
2023-02-06T18:19:01.175Z,3.10
2023-02-06T18:21:31.604Z,3.30
2023-02-06T18:23:59.867Z,3.30
2023-02-06T18:26:30.826Z,3.30
2023-02-06T18:28:58.810Z,3.20
2023-02-06T18:31:31.239Z,3.10
2023-02-06T18:34:00.458Z,3.00
2023-02-06T18:36:28.519Z,2.70
2023-02-06T18:38:57.533Z,2.70
2023-02-06T18:41:43.894Z,2.80
2023-02-06T18:44:13.571Z,2.90
2023-02-06T18:46:42.483Z,2.90
2023-02-06T18:49:12.626Z,2.80
2023-02-06T18:51:46.860Z,2.80
2023-02-06T18:54:15.570Z,2.80
2023-02-06T18:56:49.746Z,2.80
2023-02-06T18:59:18.203Z,2.90
2023-02-06T19:01:48.735Z,2.90
2023-02-06T19:04:16.986Z,2.70
2023-02-06T19:06:46.891Z,2.80
2023-02-06T19:09:15.857Z,3.00
2023-02-06T19:11:45.145Z,3.00
2023-02-06T19:14:19.902Z,2.90
2023-02-06T19:16:50.800Z,2.80
2023-02-06T19:19:19.777Z,2.70
2023-02-06T19:21:47.833Z,2.60
2023-02-06T19:24:18.743Z,2.60
2023-02-06T19:26:47.963Z,2.40
2023-02-06T19:29:33.622Z,2.40
2023-02-06T19:32:08.080Z,2.40
2023-02-06T19:34:41.191Z,2.40
2023-02-06T19:37:10.552Z,2.20
2023-02-06T19:39:40.484Z,2.30
2023-02-06T19:42:10.349Z,2.40
2023-02-06T19:44:39.185Z,2.50
2023-02-06T19:47:07.192Z,2.40
2023-02-06T19:49:36.619Z,2.20
2023-02-06T19:52:05.142Z,2.20
2023-02-06T19:54:33.762Z,2.10
2023-02-06T19:57:01.960Z,2.10
2023-02-06T19:59:30.571Z,2.00
2023-02-06T20:02:02.086Z,1.90
2023-02-06T20:04:34.217Z,1.80
2023-02-06T20:07:02.922Z,1.70
2023-02-06T20:09:31.763Z,1.60
2023-02-06T20:11:59.903Z,1.70
2023-02-06T20:14:28.207Z,1.70
2023-02-06T20:16:56.309Z,1.70
2023-02-06T20:19:29.283Z,1.60
2023-02-06T20:21:59.813Z,1.40
2023-02-06T20:24:31.450Z,1.40
2023-02-06T20:27:04.398Z,1.30
2023-02-06T20:29:36.128Z,1.20
2023-02-06T20:32:05.702Z,1.20
2023-02-06T20:34:35.026Z,1.30
2023-02-06T20:37:04.838Z,1.30
2023-02-06T20:39:32.891Z,1.40
2023-02-06T20:42:00.960Z,1.40
2023-02-06T20:44:29.722Z,1.40
2023-02-06T20:46:57.726Z,1.30
2023-02-06T20:49:28.717Z,1.30
2023-02-06T20:51:57.311Z,1.30
2023-02-06T20:54:26.050Z,1.20
2023-02-06T20:56:54.150Z,1.20
2023-02-06T20:59:22.816Z,1.10
2023-02-06T21:01:51.317Z,1.00
2023-02-06T21:04:20.741Z,0.90
2023-02-06T21:06:50.106Z,0.90
2023-02-06T21:09:18.859Z,0.90
2023-02-06T21:11:49.373Z,0.90
2023-02-06T21:14:17.894Z,0.90
2023-02-06T21:16:46.754Z,0.80
2023-02-06T21:19:17.310Z,0.70
2023-02-06T21:21:46.336Z,0.60
2023-02-06T21:24:16.003Z,0.60
2023-02-06T21:26:44.442Z,0.50
2023-02-06T21:29:14.601Z,0.40
2023-02-06T21:31:43.787Z,0.40
2023-02-06T21:34:21.449Z,0.40
2023-02-06T21:36:50.681Z,0.50
2023-02-06T21:39:22.767Z,0.70
2023-02-06T21:41:56.514Z,0.60
2023-02-06T21:44:26.529Z,0.60
2023-02-06T21:46:56.106Z,0.50
2023-02-06T21:49:24.764Z,0.50
2023-02-06T21:51:53.878Z,0.60
2023-02-06T21:54:22.761Z,0.60
2023-02-06T21:56:50.989Z,0.40
2023-02-06T21:59:19.678Z,0.40
2023-02-06T22:01:48.096Z,0.30
2023-02-06T22:04:16.906Z,0.20
2023-02-06T22:06:44.978Z,0.10
2023-02-06T22:09:16.476Z,0.10
2023-02-06T22:11:45.161Z,0.10
2023-02-06T22:14:18.213Z,0.10
2023-02-06T22:16:46.988Z,0.10
2023-02-06T22:19:16.813Z,0.10
2023-02-06T22:21:45.521Z,0.10
2023-02-06T22:24:13.726Z,0.20
2023-02-06T22:26:43.157Z,0.20
2023-02-06T22:29:14.249Z,0.20
2023-02-06T22:31:43.862Z,0.00
2023-02-06T22:34:20.709Z,-0.10
2023-02-06T22:36:51.444Z,-0.10
2023-02-06T22:39:19.810Z,-0.10
2023-02-06T22:41:48.175Z,-0.10
2023-02-06T22:44:18.346Z,-0.10
2023-02-06T22:46:50.139Z,-0.10
2023-02-06T22:49:20.398Z,-0.30
2023-02-06T22:51:48.575Z,-0.40
2023-02-06T22:54:16.571Z,-0.40
2023-02-06T22:56:45.090Z,-0.20
2023-02-06T22:59:18.045Z,-0.20
2023-02-06T23:01:47.371Z,-0.20
2023-02-06T23:04:27.664Z,-0.30
2023-02-06T23:06:57.098Z,-0.40
2023-02-06T23:09:30.990Z,-0.30
2023-02-06T23:12:00.481Z,-0.20
2023-02-06T23:14:30.310Z,-0.10
2023-02-06T23:17:01.009Z,0.00
2023-02-06T23:19:30.343Z,-0.10
2023-02-06T23:21:58.357Z,-0.10
2023-02-06T23:24:26.650Z,-0.10
2023-02-06T23:26:54.807Z,-0.10
2023-02-06T23:29:23.997Z,-0.10
2023-02-06T23:31:52.868Z,-0.10
2023-02-06T23:34:24.144Z,0.00
2023-02-06T23:36:52.934Z,0.10
2023-02-06T23:39:21.104Z,0.20
2023-02-06T23:41:49.225Z,0.30
2023-02-06T23:44:17.643Z,0.40
2023-02-06T23:46:45.743Z,0.60
2023-02-06T23:49:13.778Z,0.60
2023-02-06T23:51:42.281Z,0.60
2023-02-06T23:54:10.449Z,0.60
2023-02-06T23:56:39.817Z,0.50
2023-02-06T23:59:08.000Z,0.30
